createdAt,value
2023-01-13T00:03:37.889Z,9.78
2023-01-13T00:08:39.767Z,9.76
2023-01-13T00:13:41.913Z,9.75
2023-01-13T00:18:44.764Z,9.73
2023-01-13T00:23:47.419Z,9.73
2023-01-13T00:28:49.762Z,9.69
2023-01-13T00:33:51.724Z,9.64
2023-01-13T00:38:53.586Z,9.58
2023-01-13T00:43:55.486Z,9.53
2023-01-13T00:48:57.239Z,9.50
2023-01-13T00:53:58.974Z,9.47
2023-01-13T00:59:02.210Z,9.44
2023-01-13T01:04:04.164Z,9.41
2023-01-13T01:09:06.974Z,9.40
2023-01-13T01:14:12.770Z,9.37
2023-01-13T01:19:14.666Z,9.37
2023-01-13T01:24:16.793Z,9.38
2023-01-13T01:29:18.873Z,9.37
2023-01-13T01:34:20.746Z,9.37
2023-01-13T01:39:22.755Z,9.39
2023-01-13T01:44:42.954Z,9.43
2023-01-13T01:49:46.212Z,9.45
2023-01-13T01:55:08.461Z,9.51
2023-01-13T02:00:10.979Z,9.54
2023-01-13T02:05:16.482Z,9.59
2023-01-13T02:10:21.751Z,9.59
2023-01-13T02:15:27.459Z,9.63
2023-01-13T02:20:50.337Z,9.64
2023-01-13T02:26:20.976Z,9.68
2023-01-13T02:31:42.114Z,9.68
2023-01-13T02:37:19.444Z,9.70
2023-01-13T02:42:49.347Z,9.69
2023-01-13T02:47:56.070Z,9.71
2023-01-13T02:53:13.231Z,9.74
2023-01-13T02:58:18.806Z,9.74
2023-01-13T03:03:24.206Z,9.76
2023-01-13T03:08:50.632Z,9.77
2023-01-13T03:14:02.183Z,9.78
2023-01-13T03:19:34.271Z,9.79
2023-01-13T03:24:40.832Z,9.81
2023-01-13T03:29:49.447Z,9.84
2023-01-13T03:34:55.879Z,9.87
2023-01-13T03:40:02.338Z,9.88
2023-01-13T03:45:13.003Z,9.89
2023-01-13T03:50:22.776Z,9.91
2023-01-13T03:55:35.947Z,9.91
2023-01-13T04:00:44.769Z,9.91
2023-01-13T04:05:51.837Z,9.92
2023-01-13T04:11:02.260Z,9.89
2023-01-13T04:16:07.375Z,9.89
2023-01-13T04:21:09.486Z,9.89
2023-01-13T04:26:11.283Z,9.89
2023-01-13T04:31:14.164Z,9.89
2023-01-13T04:36:16.062Z,9.91
2023-01-13T04:41:20.467Z,9.91
2023-01-13T04:46:22.297Z,9.92
2023-01-13T04:51:24.244Z,9.90
2023-01-13T04:56:26.104Z,9.92
2023-01-13T05:01:28.213Z,9.92
2023-01-13T05:06:30.337Z,9.93
2023-01-13T05:11:50.630Z,9.93
2023-01-13T05:17:00.915Z,9.95
2023-01-13T05:22:25.671Z,9.96
2023-01-13T05:27:28.270Z,9.96
2023-01-13T05:32:30.071Z,9.96
2023-01-13T05:37:31.866Z,9.98
2023-01-13T05:42:52.341Z,9.99
2023-01-13T05:47:54.308Z,9.99
2023-01-13T05:52:57.930Z,9.99
2023-01-13T05:58:02.204Z,10.00
2023-01-13T06:03:04.903Z,10.01
2023-01-13T06:08:08.600Z,10.00
2023-01-13T06:13:10.401Z,9.99
2023-01-13T06:18:12.253Z,9.96
2023-01-13T06:23:16.513Z,9.95
2023-01-13T06:28:19.613Z,9.96
2023-01-13T06:33:32.134Z,9.96
2023-01-13T06:38:37.778Z,10.00
2023-01-13T06:43:40.295Z,10.02
2023-01-13T06:48:42.303Z,10.04
2023-01-13T06:53:44.119Z,10.06
2023-01-13T06:58:46.122Z,10.06
2023-01-13T07:03:48.073Z,10.08
2023-01-13T07:08:50.210Z,10.08
2023-01-13T07:14:10.714Z,10.09
2023-01-13T07:19:12.636Z,10.10
2023-01-13T07:24:14.793Z,10.10
2023-01-13T07:29:16.870Z,10.08
2023-01-13T07:34:18.731Z,10.10
2023-01-13T07:39:20.612Z,10.11
2023-01-13T07:44:22.533Z,10.14
2023-01-13T07:49:24.462Z,10.15
2023-01-13T07:54:39.616Z,10.16
2023-01-13T07:59:42.965Z,10.17
2023-01-13T08:04:44.802Z,10.16
2023-01-13T08:09:46.759Z,10.18
2023-01-13T08:14:50.407Z,10.20
2023-01-13T08:19:52.237Z,10.21
2023-01-13T08:24:54.050Z,10.23
2023-01-13T08:29:55.918Z,10.24
2023-01-13T08:34:57.809Z,10.24
2023-01-13T08:39:59.607Z,10.25
2023-01-13T08:45:01.515Z,10.25
2023-01-13T08:50:04.527Z,10.31
2023-01-13T08:55:07.075Z,10.37
2023-01-13T09:00:09.791Z,10.40
2023-01-13T09:05:11.948Z,10.40
2023-01-13T09:10:13.994Z,10.46
2023-01-13T09:15:18.577Z,10.56
2023-01-13T09:20:20.563Z,10.67
2023-01-13T09:25:22.308Z,10.75
2023-01-13T09:30:25.121Z,10.71
2023-01-13T09:35:26.976Z,10.67
2023-01-13T09:40:28.794Z,10.61
2023-01-13T09:45:51.109Z,10.31
2023-01-13T09:51:24.777Z,9.94
2023-01-13T09:56:26.867Z,9.69
2023-01-13T10:01:52.761Z,9.57
2023-01-13T10:07:03.775Z,9.54
2023-01-13T10:12:33.041Z,9.51
2023-01-13T10:17:46.113Z,9.44
2023-01-13T10:22:47.855Z,9.39
2023-01-13T10:27:52.946Z,9.37
2023-01-13T10:33:00.154Z,9.32
2023-01-13T10:38:02.145Z,9.32
2023-01-13T10:43:06.651Z,9.30
2023-01-13T10:48:15.068Z,9.32
2023-01-13T10:53:25.295Z,9.35
2023-01-13T10:58:28.256Z,9.37
2023-01-13T11:03:41.448Z,9.41
2023-01-13T11:08:53.037Z,9.42
2023-01-13T11:14:20.697Z,9.44
2023-01-13T11:19:27.762Z,9.44
2023-01-13T11:24:50.087Z,9.42
2023-01-13T11:29:55.339Z,9.37
2023-01-13T11:35:02.473Z,9.34
2023-01-13T11:40:14.851Z,9.38
2023-01-13T11:45:37.865Z,9.40
2023-01-13T11:50:52.056Z,9.40
2023-01-13T11:55:59.610Z,9.36
2023-01-13T12:01:09.962Z,9.35
2023-01-13T12:06:26.952Z,9.36
2023-01-13T12:12:03.237Z,9.33
2023-01-13T12:17:16.671Z,9.31
2023-01-13T12:22:31.070Z,9.35
2023-01-13T12:27:49.232Z,9.43
2023-01-13T12:32:57.448Z,9.48
2023-01-13T12:38:19.524Z,9.47
2023-01-13T12:43:43.103Z,9.44
2023-01-13T12:48:57.244Z,9.38
2023-01-13T12:54:01.149Z,9.35
2023-01-13T12:59:26.042Z,9.43
2023-01-13T13:04:56.199Z,9.52
2023-01-13T13:10:18.161Z,9.52
2023-01-13T13:15:25.749Z,9.50
2023-01-13T13:20:56.766Z,9.47
2023-01-13T13:26:04.783Z,9.42
2023-01-13T13:31:31.031Z,9.44
2023-01-13T13:37:24.320Z,9.41
2023-01-13T13:42:55.845Z,9.42
2023-01-13T13:47:57.868Z,9.42
2023-01-13T13:53:05.397Z,9.41
2023-01-13T13:58:17.629Z,9.40
2023-01-13T14:03:29.182Z,9.38
2023-01-13T14:08:39.504Z,9.37
2023-01-13T14:13:41.405Z,9.35
2023-01-13T14:18:47.417Z,9.35
2023-01-13T14:23:56.849Z,9.33
2023-01-13T14:29:01.659Z,9.30
2023-01-13T14:34:31.364Z,9.27
2023-01-13T14:39:38.575Z,9.23
2023-01-13T14:44:48.963Z,9.19
2023-01-13T14:50:11.966Z,9.15
2023-01-13T14:55:29.243Z,9.11
2023-01-13T15:00:33.033Z,9.09
2023-01-13T15:05:37.660Z,9.09
2023-01-13T15:10:55.459Z,9.06
2023-01-13T15:16:00.291Z,9.01
2023-01-13T15:21:02.224Z,9.00
2023-01-13T15:26:04.404Z,8.99
2023-01-13T15:31:06.314Z,8.93
2023-01-13T15:36:20.900Z,8.84
2023-01-13T15:41:41.771Z,8.74
2023-01-13T15:46:44.335Z,8.64
2023-01-13T15:51:49.838Z,8.54
2023-01-13T15:56:52.571Z,8.44
2023-01-13T16:01:54.372Z,8.39
2023-01-13T16:06:56.167Z,8.37
2023-01-13T16:11:57.954Z,8.37
2023-01-13T16:17:01.754Z,8.36
2023-01-13T16:22:03.516Z,8.31
2023-01-13T16:27:23.309Z,8.26
2023-01-13T16:32:25.246Z,8.24
2023-01-13T16:37:27.845Z,8.21
2023-01-13T16:42:29.788Z,8.19
2023-01-13T16:47:31.672Z,8.19
2023-01-13T16:52:33.478Z,8.17
2023-01-13T16:57:38.093Z,8.16
2023-01-13T17:02:40.203Z,8.15
2023-01-13T17:07:43.338Z,8.09
2023-01-13T17:12:45.446Z,8.06
2023-01-13T17:17:52.006Z,8.03
2023-01-13T17:22:58.372Z,7.99
2023-01-13T17:28:02.750Z,7.96
2023-01-13T17:33:04.597Z,7.93
2023-01-13T17:38:06.455Z,7.88
2023-01-13T17:43:08.361Z,7.85
2023-01-13T17:48:10.149Z,7.83
2023-01-13T17:53:11.930Z,7.82
2023-01-13T17:58:13.839Z,7.83
2023-01-13T18:03:17.568Z,7.84
2023-01-13T18:08:19.679Z,7.87
2023-01-13T18:13:21.508Z,7.90
2023-01-13T18:18:23.361Z,7.93
2023-01-13T18:23:43.794Z,7.97
2023-01-13T18:28:45.793Z,7.99
2023-01-13T18:33:47.615Z,8.02
2023-01-13T18:38:50.648Z,8.03
2023-01-13T18:43:52.462Z,8.05
2023-01-13T18:48:54.563Z,8.06
2023-01-13T18:53:56.433Z,8.06
2023-01-13T18:58:58.542Z,8.07
2023-01-13T19:04:03.056Z,8.07
2023-01-13T19:09:08.726Z,8.11
2023-01-13T19:14:10.602Z,8.13
2023-01-13T19:19:12.491Z,8.13
2023-01-13T19:24:14.352Z,8.13
2023-01-13T19:29:16.225Z,8.12
2023-01-13T19:34:18.552Z,8.10
2023-01-13T19:39:23.945Z,8.09
2023-01-13T19:44:44.132Z,8.10
2023-01-13T19:49:46.221Z,8.09
2023-01-13T19:54:48.447Z,8.08
2023-01-13T19:59:50.262Z,8.07
2023-01-13T20:04:55.868Z,8.05
2023-01-13T20:09:58.288Z,8.03
2023-01-13T20:15:00.107Z,8.05
2023-01-13T20:20:02.420Z,8.04
2023-01-13T20:25:04.633Z,8.00
2023-01-13T20:30:13.577Z,7.97
2023-01-13T20:35:15.674Z,7.92
2023-01-13T20:40:18.533Z,7.92
2023-01-13T20:45:21.748Z,7.94
2023-01-13T20:50:23.560Z,7.95
2023-01-13T20:55:25.302Z,7.93
2023-01-13T21:00:28.765Z,7.91
2023-01-13T21:05:30.878Z,7.87
2023-01-13T21:10:32.775Z,7.87
2023-01-13T21:15:34.936Z,7.87
2023-01-13T21:20:38.203Z,7.87
2023-01-13T21:25:40.488Z,7.87
2023-01-13T21:30:43.833Z,7.90
2023-01-13T21:35:45.699Z,7.93
2023-01-13T21:40:59.894Z,7.96
2023-01-13T21:46:20.220Z,7.99
2023-01-13T21:51:22.100Z,8.00
2023-01-13T21:56:24.391Z,8.03
2023-01-13T22:01:26.260Z,8.05
2023-01-13T22:06:28.239Z,8.03
2023-01-13T22:11:31.873Z,8.00
2023-01-13T22:16:39.632Z,7.97
2023-01-13T22:21:41.571Z,7.94
2023-01-13T22:26:43.418Z,7.93
2023-01-13T22:31:45.314Z,7.89
2023-01-13T22:36:47.119Z,7.89
2023-01-13T22:41:48.893Z,7.91
2023-01-13T22:46:51.011Z,7.93
2023-01-13T22:51:53.090Z,7.96
2023-01-13T22:56:55.273Z,7.98
2023-01-13T23:01:57.118Z,8.00
2023-01-13T23:07:00.216Z,7.97
2023-01-13T23:12:02.092Z,7.96
2023-01-13T23:17:04.763Z,7.95
2023-01-13T23:22:06.779Z,7.93
2023-01-13T23:27:08.607Z,7.90
2023-01-13T23:32:10.464Z,7.87
2023-01-13T23:37:12.375Z,7.82
2023-01-13T23:42:14.270Z,7.77
2023-01-13T23:47:16.091Z,7.73
2023-01-13T23:52:18.255Z,7.70
2023-01-13T23:57:20.419Z,7.67
